Airfield :
LOGIN :

Register | Disclaimer

   EN    FR    IT 

 










Legend :    VFR   Marginal VFR   IFR   Intensive IFR   Very Intensive IFR
Visi :
Ceiling :
>= 8 km
>= 3000ft
5 to 8 km
1000 to 3000 ft
1500m to 5 km
500 to 1000 ft
800 to 1500m
200 to 500 ft
< 800m
< 200 ft
Symbols :   Thunderstorms  Fog  Heavy snow  Heavy precipitations  Wind > 20 kt
SIGMETs :     Misc.  Thunderstorms  Icing  Turbulence  Mountain Waves  Volcanic Ashes







- Airport Elevation : 100 ft


EBDT - Schaffen

CURRENT METAR :
  • 220416Z 24005KT 4000 BR OVC003 07/07 Q1006 YLO

EXPIRED METARs :
  • 220355Z AUTO 23006KT 5000 DZ BKN003/// 07/07 Q1006 YLO
  • 220325Z AUTO 22005KT 4100 DZ BKN002/// BKN004/// 06/06 Q1006 AMB
  • 220255Z AUTO 21005KT 1800 DZ BKN002/// 06/05 Q1006 AMB
  • 220225Z AUTO 20005KT 2700 -DZ BKN002/// 05/05 Q1006 AMB
  • 220155Z AUTO 19005KT 1600 -DZ OVC002/// 04/04 Q1006 AMB
  • 220125Z AUTO 18006KT 1900 BR OVC002/// 04/04 Q1006 AMB

Expired Forecast.
No reported NOTAMs for that airfield.



MET'MAP, your aeronautical weather chart ! - Copyright ORBIFLY December 2007 - Disclaimer

ORBIFLY MET'MAP TEAM :

Programming & Development : Alexandra Zaïnal
Concept & Development : Baudouin d'Aumeries
Co-Development & Prog : Marc-Olivier Méhu
Technical & hardware support : Manuel Goepfert

Contact : metmap@orbifly.com




SOURCES & CREDITS :

   NOAA